createdAt,value
2022-08-16T00:03:44.010Z,48.99
2022-08-16T00:08:46.803Z,48.74
2022-08-16T00:13:53.757Z,48.42
2022-08-16T00:18:59.031Z,48.49
2022-08-16T00:24:04.948Z,48.66
2022-08-16T00:29:07.066Z,48.54
2022-08-16T00:34:09.164Z,48.88
2022-08-16T00:39:20.999Z,48.43
2022-08-16T00:44:23.571Z,48.74
2022-08-16T00:49:39.714Z,45.94
2022-08-16T00:54:47.019Z,48.46
2022-08-16T00:59:58.895Z,48.76
2022-08-16T01:05:09.596Z,48.69
2022-08-16T01:10:16.448Z,48.70
2022-08-16T01:15:19.216Z,49.05
2022-08-16T01:20:30.101Z,49.32
2022-08-16T01:25:37.198Z,49.55
2022-08-16T01:30:49.781Z,49.53
2022-08-16T01:35:58.677Z,49.67
2022-08-16T01:41:20.000Z,49.83
2022-08-16T01:46:39.404Z,50.10
2022-08-16T01:52:04.453Z,49.96
2022-08-16T01:57:31.517Z,50.08
2022-08-16T02:02:34.064Z,50.15
2022-08-16T02:07:44.915Z,50.31
2022-08-16T02:12:52.553Z,50.45
2022-08-16T02:18:01.113Z,50.63
2022-08-16T02:23:06.164Z,50.47
2022-08-16T02:28:08.241Z,50.49
2022-08-16T02:33:12.640Z,50.35
2022-08-16T02:38:18.361Z,50.40
2022-08-16T02:43:26.788Z,50.40
2022-08-16T02:48:32.114Z,50.35
2022-08-16T02:53:41.021Z,50.39
2022-08-16T02:58:47.657Z,50.28
2022-08-16T03:04:41.538Z,50.30
2022-08-16T03:09:14.936Z,50.43
2022-08-16T03:14:24.860Z,50.59
2022-08-16T03:19:48.542Z,50.59
2022-08-16T03:25:01.835Z,50.35
2022-08-16T03:30:15.271Z,50.18
2022-08-16T03:35:33.024Z,50.17
2022-08-16T03:40:43.436Z,47.15
2022-08-16T03:45:46.249Z,49.97
2022-08-16T03:50:59.871Z,49.90
2022-08-16T03:56:04.319Z,49.89
2022-08-16T04:01:08.714Z,49.66
2022-08-16T04:06:11.112Z,49.22
2022-08-16T04:11:16.695Z,49.35
2022-08-16T04:16:26.223Z,48.92
2022-08-16T04:21:34.734Z,46.51
2022-08-16T04:26:37.292Z,48.02
2022-08-16T04:31:56.645Z,47.69
2022-08-16T04:37:03.669Z,47.60
2022-08-16T04:42:12.450Z,47.00
2022-08-16T04:47:23.942Z,47.04
2022-08-16T04:52:34.009Z,46.28
2022-08-16T04:57:39.320Z,46.08
2022-08-16T05:02:43.965Z,46.27
2022-08-16T05:07:58.192Z,46.13
2022-08-16T05:13:04.049Z,45.79
2022-08-16T05:18:06.451Z,44.03
2022-08-16T05:23:25.423Z,41.01
2022-08-16T05:28:37.582Z,37.89
2022-08-16T05:33:43.320Z,36.27
2022-08-16T05:38:46.823Z,34.20
2022-08-16T05:43:50.313Z,33.11
2022-08-16T05:49:09.580Z,31.25
2022-08-16T05:54:24.828Z,31.48
2022-08-16T05:59:29.388Z,29.98
2022-08-16T06:04:36.350Z,28.79
2022-08-16T06:09:46.311Z,28.76
2022-08-16T06:14:51.399Z,28.54
2022-08-16T06:19:56.209Z,27.53
2022-08-16T06:24:59.066Z,27.43
2022-08-16T06:30:03.218Z,26.52
2022-08-16T06:35:07.999Z,26.57
2022-08-16T06:40:12.873Z,25.42
2022-08-16T06:45:23.226Z,24.44
2022-08-16T06:50:36.007Z,23.73
2022-08-16T06:55:43.347Z,22.90
2022-08-16T07:00:48.566Z,22.77
2022-08-16T07:05:53.094Z,22.65
2022-08-16T07:11:03.443Z,22.18
2022-08-16T07:16:15.369Z,21.09
2022-08-16T07:21:19.445Z,20.58
2022-08-16T07:26:25.742Z,21.05
2022-08-16T07:31:38.074Z,20.21
2022-08-16T07:36:45.668Z,19.37
2022-08-16T07:42:01.380Z,17.48
2022-08-16T07:47:04.346Z,17.93
2022-08-16T07:52:18.571Z,18.48
2022-08-16T07:57:21.100Z,18.16
2022-08-16T08:02:28.684Z,17.78
2022-08-16T08:07:33.225Z,17.22
2022-08-16T08:12:39.290Z,16.99
2022-08-16T08:17:44.135Z,16.69
2022-08-16T08:22:53.759Z,15.97
2022-08-16T08:28:04.333Z,15.59
2022-08-16T08:33:13.568Z,15.63
2022-08-16T08:38:44.902Z,16.06
2022-08-16T08:43:43.097Z,16.50
2022-08-16T08:48:59.069Z,16.20
2022-08-16T08:54:06.770Z,16.43
2022-08-16T08:59:12.975Z,16.37
2022-08-16T09:04:18.979Z,15.55
2022-08-16T09:09:23.666Z,15.35
2022-08-16T09:14:32.341Z,15.91
2022-08-16T09:19:37.301Z,15.00
2022-08-16T09:24:52.643Z,14.94
2022-08-16T09:29:59.967Z,14.79
2022-08-16T09:35:05.033Z,15.02
2022-08-16T09:40:29.326Z,16.74
2022-08-16T09:45:33.884Z,16.48
2022-08-16T09:50:39.872Z,14.79
2022-08-16T09:55:44.207Z,13.96
2022-08-16T10:00:47.006Z,13.48
2022-08-16T10:05:50.065Z,13.25
2022-08-16T10:11:11.277Z,13.48
2022-08-16T10:21:17.238Z,12.44
2022-08-16T10:27:19.944Z,13.60
2022-08-16T10:31:53.239Z,13.70
2022-08-16T10:36:56.962Z,13.79
2022-08-16T10:41:59.557Z,13.63
2022-08-16T10:47:02.640Z,14.20
2022-08-16T10:52:18.176Z,15.21
2022-08-16T10:57:24.512Z,16.39
2022-08-16T11:02:58.818Z,15.47
2022-08-16T11:07:53.585Z,13.99
2022-08-16T11:13:21.149Z,13.62
2022-08-16T11:19:03.130Z,14.05
2022-08-16T11:23:56.724Z,13.88
2022-08-16T11:29:15.735Z,12.25
2022-08-16T11:34:19.881Z,12.93
2022-08-16T11:39:23.303Z,13.21
2022-08-16T11:44:40.715Z,12.42
2022-08-16T11:49:48.258Z,12.85
2022-08-16T11:54:56.828Z,12.72
2022-08-16T11:59:59.176Z,12.88
2022-08-16T12:05:01.261Z,13.49
2022-08-16T12:10:10.412Z,13.88
2022-08-16T12:15:13.725Z,14.02
2022-08-16T12:20:21.398Z,14.10
2022-08-16T12:25:26.920Z,13.84
2022-08-16T12:30:38.751Z,14.80
2022-08-16T12:35:41.934Z,14.71
2022-08-16T12:40:47.101Z,13.53
2022-08-16T12:45:53.400Z,13.43
2022-08-16T12:50:57.022Z,13.24
2022-08-16T12:56:00.043Z,13.48
2022-08-16T13:01:02.513Z,13.18
2022-08-16T13:06:04.675Z,13.91
2022-08-16T13:11:08.038Z,15.02
2022-08-16T13:16:20.307Z,15.90
2022-08-16T13:21:23.394Z,15.96
2022-08-16T13:26:26.696Z,18.09
2022-08-16T13:31:28.815Z,19.13
2022-08-16T13:36:48.738Z,19.22
2022-08-16T13:41:54.488Z,19.24
2022-08-16T13:46:57.520Z,19.09
2022-08-16T13:51:59.657Z,19.65
2022-08-16T13:57:02.003Z,20.17
2022-08-16T14:02:08.029Z,20.43
2022-08-16T14:07:13.487Z,20.74
2022-08-16T14:12:30.297Z,21.39
2022-08-16T14:18:14.958Z,22.39
2022-08-16T14:22:55.474Z,23.14
2022-08-16T14:27:57.638Z,23.39
2022-08-16T14:33:00.123Z,23.96
2022-08-16T14:38:02.492Z,24.22
2022-08-16T14:43:07.533Z,24.52
2022-08-16T14:48:10.420Z,24.45
2022-08-16T14:53:12.737Z,24.39
2022-08-16T14:58:19.114Z,24.90
2022-08-16T15:03:25.610Z,25.71
2022-08-16T15:08:37.251Z,25.77
2022-08-16T15:13:42.634Z,25.95
2022-08-16T15:18:46.613Z,26.10
2022-08-16T15:23:48.859Z,26.11
2022-08-16T15:28:51.853Z,25.74
2022-08-16T15:33:58.108Z,26.39
2022-08-16T15:39:06.879Z,26.67
2022-08-16T15:44:24.977Z,27.54
2022-08-16T15:49:37.737Z,27.99
2022-08-16T15:54:53.705Z,28.14
2022-08-16T16:00:04.874Z,28.76
2022-08-16T16:05:18.994Z,29.10
2022-08-16T16:10:21.984Z,29.42
2022-08-16T16:15:35.088Z,29.85
2022-08-16T16:20:39.770Z,30.37
2022-08-16T16:25:44.672Z,30.46
2022-08-16T16:30:47.238Z,31.08
2022-08-16T16:35:56.666Z,30.97
2022-08-16T16:41:01.110Z,32.21
2022-08-16T16:46:40.707Z,32.35
2022-08-16T16:51:29.389Z,32.72
2022-08-16T16:56:36.971Z,33.15
2022-08-16T17:01:59.385Z,33.27
2022-08-16T17:07:03.524Z,33.40
2022-08-16T17:12:06.185Z,33.77
2022-08-16T17:17:09.271Z,34.06
2022-08-16T17:22:19.844Z,34.28
2022-08-16T17:27:33.900Z,34.64
2022-08-16T17:32:47.330Z,34.74
2022-08-16T17:37:52.447Z,34.94
2022-08-16T17:42:57.265Z,35.36
2022-08-16T17:47:59.629Z,35.22
2022-08-16T17:53:04.762Z,35.66
2022-08-16T17:58:22.661Z,36.07
2022-08-16T18:04:09.165Z,35.79
2022-08-16T18:09:01.749Z,36.44
2022-08-16T18:14:06.550Z,36.59
2022-08-16T18:19:10.108Z,37.04
2022-08-16T18:24:14.916Z,37.01
2022-08-16T18:29:18.216Z,37.26
2022-08-16T18:34:20.839Z,37.31
2022-08-16T18:39:22.931Z,37.53
2022-08-16T18:44:30.076Z,37.72
2022-08-16T18:49:36.372Z,37.75
2022-08-16T18:55:02.043Z,37.92
2022-08-16T19:00:00.748Z,38.08
2022-08-16T19:05:03.102Z,38.34
2022-08-16T19:10:06.489Z,38.56
2022-08-16T19:15:14.159Z,38.69
2022-08-16T19:20:19.235Z,39.23
2022-08-16T19:25:23.600Z,39.10
2022-08-16T19:30:45.676Z,39.14
2022-08-16T19:35:47.811Z,39.72
2022-08-16T19:40:50.555Z,39.73
2022-08-16T19:45:53.439Z,39.60
2022-08-16T19:50:55.465Z,39.86
2022-08-16T19:55:57.555Z,40.01
2022-08-16T20:01:00.694Z,39.84
2022-08-16T20:06:02.771Z,40.19
2022-08-16T20:11:05.276Z,40.29
2022-08-16T20:16:07.859Z,40.53
2022-08-16T20:21:09.889Z,40.37
2022-08-16T20:26:11.908Z,40.96
2022-08-16T20:31:14.038Z,41.20
2022-08-16T20:36:16.682Z,41.32
2022-08-16T20:41:19.202Z,41.65
2022-08-16T20:46:21.280Z,41.99
2022-08-16T20:51:23.313Z,42.32
2022-08-16T20:56:25.563Z,42.38
2022-08-16T21:01:45.779Z,42.81
2022-08-16T21:06:54.369Z,43.04
2022-08-16T21:12:19.567Z,43.07
2022-08-16T21:17:21.886Z,43.35
2022-08-16T21:28:41.553Z,43.88
2022-08-16T21:33:20.087Z,44.40
2022-08-16T21:38:28.634Z,44.67
2022-08-16T21:43:33.605Z,45.01
2022-08-16T21:48:36.868Z,45.12
2022-08-16T21:53:45.958Z,45.16
2022-08-16T21:58:52.951Z,45.58
2022-08-16T22:04:03.511Z,45.64
2022-08-16T22:09:19.025Z,46.01
2022-08-16T22:14:30.247Z,46.30
2022-08-16T22:19:36.435Z,46.29
2022-08-16T22:24:39.225Z,46.53
2022-08-16T22:29:55.568Z,46.73
2022-08-16T22:35:12.363Z,47.03
2022-08-16T22:40:17.679Z,47.01
2022-08-16T22:45:31.895Z,47.23
2022-08-16T22:50:35.832Z,47.62
2022-08-16T22:55:40.687Z,47.73
2022-08-16T23:00:48.740Z,48.20
2022-08-16T23:06:02.779Z,48.18
2022-08-16T23:11:15.300Z,48.83
2022-08-16T23:16:21.529Z,48.91
2022-08-16T23:21:24.555Z,49.42
2022-08-16T23:26:47.263Z,49.42
2022-08-16T23:31:51.993Z,49.74
2022-08-16T23:37:00.327Z,50.02
2022-08-16T23:42:07.410Z,50.42
2022-08-16T23:47:09.727Z,50.32
2022-08-16T23:52:12.110Z,50.75
2022-08-16T23:57:14.220Z,50.75
